Time;durP1;ratioP1;P1;durP2;ratioP2;P2;SDS_P1;SDS_P2;PMS_P1;PMS_P2;Temp;Humidity;BMP_temperature;BMP_pressure;BME280_temperature;BME280_humidity;BME280_pressure;Samples;Min_cycle;Max_cycle;Signal;HPM_P1;HPM_P2
2022/06/01 00:00:31;;;;;;;13.85;10.10;;;12.60;99.90;;;;;;5031069;28;20029;-65
2022/06/01 00:02:57;;;;;;;12.38;9.57;;;12.60;99.90;;;;;;5030970;28;20032;-65
2022/06/01 00:05:24;;;;;;;14.48;10.55;;;12.50;99.90;;;;;;5032309;28;20030;-65
2022/06/01 00:07:51;;;;;;;14.02;9.85;;;12.50;99.90;;;;;;5034670;28;20048;-65
2022/06/01 00:10:17;;;;;;;12.90;10.77;;;12.60;99.90;;;;;;5034724;28;20036;-65
2022/06/01 00:12:43;;;;;;;15.43;11.15;;;12.60;99.90;;;;;;5034733;28;20026;-65
2022/06/01 00:15:12;;;;;;;15.75;11.52;;;12.50;99.90;;;;;;5034897;28;20033;-65
2022/06/01 00:17:38;;;;;;;15.75;12.68;;;12.50;99.90;;;;;;5034804;28;20450;-65
2022/06/01 00:20:05;;;;;;;13.82;11.35;;;12.50;99.90;;;;;;5034580;28;20033;-65
2022/06/01 00:22:30;;;;;;;15.45;11.57;;;12.50;99.90;;;;;;5034679;28;20033;-65
2022/06/01 00:24:57;;;;;;;16.33;12.75;;;12.60;99.90;;;;;;5033080;28;20031;-65
2022/06/01 00:27:23;;;;;;;16.98;14.00;;;12.60;99.90;;;;;;5034363;28;20029;-65
2022/06/01 00:29:49;;;;;;;16.65;12.70;;;12.60;99.90;;;;;;5034390;28;20025;-65
2022/06/01 00:32:16;;;;;;;17.10;13.50;;;12.50;99.90;;;;;;5034220;28;20033;-65
2022/06/01 00:34:43;;;;;;;15.60;13.05;;;12.50;99.90;;;;;;5034305;28;20049;-65
2022/06/01 00:37:09;;;;;;;17.08;14.30;;;12.50;99.90;;;;;;5034094;28;20029;-65
2022/06/01 00:39:36;;;;;;;17.23;13.55;;;12.60;99.90;;;;;;5034226;28;20025;-65
2022/06/01 00:42:13;;;;;;;21.15;14.57;;;12.60;99.90;;;;;;5034113;28;20178;-65
2022/06/01 00:44:39;;;;;;;19.20;15.23;;;12.60;99.90;;;;;;5034547;28;20025;-65
2022/06/01 00:47:06;;;;;;;19.08;14.88;;;12.60;99.90;;;;;;5033839;28;20061;-65
2022/06/01 00:49:33;;;;;;;17.23;14.20;;;12.60;99.90;;;;;;5033730;28;20474;-65
2022/06/01 00:52:00;;;;;;;18.40;14.45;;;12.50;99.90;;;;;;5033789;28;20026;-65
2022/06/01 00:54:27;;;;;;;17.58;14.68;;;12.50;99.90;;;;;;5034056;28;20571;-65
2022/06/01 00:56:57;;;;;;;16.08;13.40;;;12.50;99.90;;;;;;5033748;28;20471;-65
2022/06/01 00:59:28;;;;;;;18.83;15.27;;;12.50;99.90;;;;;;5033679;28;20029;-65
2022/06/01 01:01:56;;;;;;;18.20;15.25;;;12.50;99.90;;;;;;5033777;28;20032;-65
2022/06/01 01:04:23;;;;;;;19.05;15.35;;;12.40;99.90;;;;;;5033839;28;20088;-65
2022/06/01 01:06:49;;;;;;;20.50;16.30;;;12.40;99.90;;;;;;5033552;28;20032;-65
2022/06/01 01:09:15;;;;;;;19.42;15.20;;;12.40;99.90;;;;;;5033510;28;20040;-65
2022/06/01 01:12:01;;;;;;;19.10;14.43;;;12.40;99.90;;;;;;5033545;28;20427;-65
2022/06/01 01:14:30;;;;;;;17.52;15.00;;;12.40;99.90;;;;;;5033845;28;20025;-65
2022/06/01 01:16:57;;;;;;;;;;;12.30;99.90;;;;;;5031193;28;20029;-65
2022/06/01 01:19:40;;;;;;;18.73;15.30;;;12.30;99.90;;;;;;5033430;28;19917;-65
2022/06/01 01:22:50;;;;;;;21.30;16.58;;;12.30;99.90;;;;;;5033416;28;20039;-65
2022/06/01 01:25:26;;;;;;;18.63;15.05;;;12.20;99.90;;;;;;5033399;28;20029;-65
2022/06/01 01:27:54;;;;;;;18.57;15.43;;;12.20;99.90;;;;;;5033362;28;20034;-65
2022/06/01 01:30:39;;;;;;;19.83;15.80;;;12.20;99.90;;;;;;5033166;28;20028;-65
2022/06/01 01:33:09;;;;;;;22.55;16.17;;;12.30;99.90;;;;;;5033282;28;20037;-65
2022/06/01 01:35:35;;;;;;;19.85;16.55;;;12.20;99.90;;;;;;5033188;28;20375;-65
2022/06/01 01:38:06;;;;;;;21.43;16.67;;;12.10;99.90;;;;;;5032823;28;20398;-66
2022/06/01 01:40:35;;;;;;;23.47;16.43;;;12.10;99.90;;;;;;5033001;28;20033;-65
2022/06/01 01:43:07;;;;;;;19.85;16.02;;;12.10;99.90;;;;;;5033330;28;20025;-65
2022/06/01 01:45:36;;;;;;;21.03;16.70;;;12.10;99.90;;;;;;5033067;28;20029;-65
2022/06/01 01:48:03;;;;;;;19.15;15.57;;;12.10;99.90;;;;;;5033099;28;20021;-65
2022/06/01 01:50:29;;;;;;;20.58;16.85;;;12.10;99.90;;;;;;5032810;28;20028;-66
2022/06/01 01:52:56;;;;;;;23.07;17.13;;;12.00;99.90;;;;;;5032806;28;20033;-66
2022/06/01 01:55:33;;;;;;;21.53;17.33;;;12.00;99.90;;;;;;5032589;28;20034;-66
2022/06/01 01:58:24;;;;;;;20.87;16.83;;;12.00;99.90;;;;;;5032497;28;20137;-66
2022/06/01 02:01:00;;;;;;;21.77;16.40;;;12.00;99.90;;;;;;5032439;28;20042;-66
2022/06/01 02:03:36;;;;;;;22.13;16.87;;;11.90;99.90;;;;;;5032738;28;20033;-66
2022/06/01 02:06:14;;;;;;;20.33;15.98;;;11.90;99.90;;;;;;5032637;28;20035;-66
2022/06/01 02:08:48;;;;;;;19.00;15.03;;;11.90;99.90;;;;;;5032826;28;20540;-66
2022/06/01 02:14:46;;;;;;;17.93;14.87;;;11.90;99.90;;;;;;5032823;28;20455;-65
2022/06/01 02:17:23;;;;;;;19.33;15.17;;;11.80;99.90;;;;;;5026761;28;20045;-65
2022/06/01 02:19:57;;;;;;;19.87;14.70;;;11.80;99.90;;;;;;5032074;28;20029;-66
2022/06/01 02:22:24;;;;;;;19.37;14.70;;;11.80;99.90;;;;;;5032529;28;20055;-66
2022/06/01 02:24:50;;;;;;;17.73;14.00;;;11.80;99.90;;;;;;5031248;28;20033;-66
2022/06/01 02:27:18;;;;;;;18.40;14.70;;;11.80;99.90;;;;;;5032166;28;20025;-66
2022/06/01 02:29:57;;;;;;;18.23;14.10;;;11.70;99.90;;;;;;5031707;28;20442;-66
2022/06/01 02:32:26;;;;;;;18.37;14.23;;;11.70;99.90;;;;;;5032137;28;20025;-66
2022/06/01 02:34:54;;;;;;;;;;;11.70;99.90;;;;;;5032668;28;20043;-66
2022/06/01 02:37:22;;;;;;;17.20;13.57;;;11.70;99.90;;;;;;5031802;28;19909;-66
2022/06/01 02:39:53;;;;;;;18.00;13.17;;;11.70;99.90;;;;;;5031698;28;20029;-66
2022/06/01 02:42:25;;;;;;;19.03;14.47;;;11.70;99.90;;;;;;5032207;28;20125;-66
2022/06/01 02:44:58;;;;;;;18.80;13.50;;;11.60;99.90;;;;;;5031905;28;20025;-66
2022/06/01 02:47:26;;;;;;;18.60;14.00;;;11.60;99.90;;;;;;5032013;28;20074;-66
2022/06/01 02:49:52;;;;;;;15.70;13.47;;;11.60;99.90;;;;;;5031698;28;20056;-66
2022/06/01 02:52:19;;;;;;;18.20;14.23;;;11.60;99.90;;;;;;5031987;28;20079;-66
2022/06/01 02:54:45;;;;;;;17.63;14.37;;;11.60;99.90;;;;;;5032015;28;20493;-66
2022/06/01 02:57:11;;;;;;;16.70;14.13;;;11.60;99.90;;;;;;5031844;28;20069;-66
2022/06/01 02:59:37;;;;;;;18.30;14.10;;;11.60;99.90;;;;;;5031327;28;20547;-66
2022/06/01 03:02:06;;;;;;;18.60;14.53;;;11.60;99.90;;;;;;5031602;28;20114;-66
2022/06/01 03:04:32;;;;;;;18.33;14.33;;;11.60;99.90;;;;;;5031666;28;20055;-66
2022/06/01 03:06:58;;;;;;;17.40;13.50;;;11.60;99.90;;;;;;5031472;28;20024;-66
2022/06/01 03:09:24;;;;;;;17.00;13.17;;;11.60;99.90;;;;;;5031493;28;20783;-66
2022/06/01 03:11:50;;;;;;;18.10;14.13;;;11.60;99.90;;;;;;5031400;28;20025;-66
2022/06/01 03:14:16;;;;;;;18.73;14.47;;;11.60;99.90;;;;;;5031472;28;20058;-66
2022/06/01 03:16:42;;;;;;;16.93;13.30;;;11.60;99.90;;;;;;5031446;28;20053;-66
2022/06/01 03:19:08;;;;;;;18.07;13.60;;;11.70;99.90;;;;;;5031510;28;20029;-66
2022/06/01 03:21:34;;;;;;;18.60;14.10;;;11.70;99.90;;;;;;5031384;28;20437;-66
2022/06/01 03:24:01;;;;;;;17.57;13.10;;;11.70;99.90;;;;;;5031522;28;20104;-66
2022/06/01 03:26:27;;;;;;;17.30;13.53;;;11.60;99.90;;;;;;5031303;28;20030;-66
2022/06/01 03:28:54;;;;;;;18.30;13.20;;;11.60;99.90;;;;;;5030107;28;20430;-66
2022/06/01 03:31:20;;;;;;;17.77;12.67;;;11.60;99.90;;;;;;5031357;28;20478;-66
2022/06/01 03:33:46;;;;;;;15.73;12.80;;;11.60;99.90;;;;;;5031328;28;20039;-66
2022/06/01 03:36:12;;;;;;;16.00;12.47;;;11.60;99.90;;;;;;5029921;28;20030;-66
2022/06/01 03:38:37;;;;;;;16.03;12.40;;;11.60;99.90;;;;;;5031183;28;20056;-66
2022/06/01 03:41:04;;;;;;;18.53;13.63;;;11.50;99.90;;;;;;5033567;28;20037;-66
2022/06/01 03:45:55;;;;;;;16.13;13.03;;;11.60;99.90;;;;;;5035272;28;20532;-66
2022/06/01 03:46:17;;;;;;;18.63;13.10;;;11.60;99.90;;;;;;5033552;28;20060;-66
2022/06/01 03:48:46;;;;;;;16.43;12.90;;;11.50;99.90;;;;;;5035164;28;20109;-66
2022/06/01 03:51:12;;;;;;;18.60;12.15;;;11.60;99.90;;;;;;5035021;28;20033;-66
2022/06/01 03:53:37;;;;;;;16.03;12.07;;;11.60;99.90;;;;;;5035269;28;20033;-66
2022/06/01 03:56:03;;;;;;;15.40;12.70;;;11.60;99.90;;;;;;5035171;28;20029;-66
2022/06/01 03:58:29;;;;;;;16.33;12.83;;;11.60;99.90;;;;;;5034799;28;20021;-67
2022/06/01 04:00:56;;;;;;;16.60;12.60;;;11.60;99.90;;;;;;5034817;28;20171;-66
2022/06/01 04:03:22;;;;;;;16.67;13.13;;;11.60;99.90;;;;;;5034852;28;20037;-66
2022/06/01 04:05:48;;;;;;;16.57;13.00;;;11.50;99.90;;;;;;5035046;28;20140;-66
2022/06/01 04:08:14;;;;;;;17.50;13.50;;;11.60;99.90;;;;;;5034695;28;20474;-66
2022/06/01 04:10:43;;;;;;;16.57;13.57;;;11.60;99.90;;;;;;5034891;28;20026;-66
2022/06/01 04:13:11;;;;;;;15.95;12.98;;;11.60;99.90;;;;;;5033498;28;20033;-66
2022/06/01 04:15:37;;;;;;;16.03;12.73;;;11.60;99.90;;;;;;5034873;28;20398;-66
2022/06/01 04:18:03;;;;;;;17.90;13.73;;;11.60;99.90;;;;;;5034679;28;20033;-66
2022/06/01 04:20:29;;;;;;;17.30;12.70;;;11.60;99.90;;;;;;5034242;28;20036;-66
2022/06/01 04:22:58;;;;;;;17.10;13.20;;;11.60;99.90;;;;;;5034441;28;20398;-66
2022/06/01 04:25:24;;;;;;;17.15;13.23;;;11.60;99.90;;;;;;5033399;28;20030;-66
2022/06/01 04:27:50;;;;;;;24.63;17.53;;;11.60;99.90;;;;;;5034476;28;20038;-66
2022/06/01 04:30:18;;;;;;;19.33;13.80;;;11.70;99.90;;;;;;5034555;28;20441;-66
2022/06/01 04:32:46;;;;;;;22.17;13.83;;;11.70;99.90;;;;;;5034444;28;20038;-66
2022/06/01 04:35:12;;;;;;;17.37;13.20;;;11.70;99.90;;;;;;5034597;28;20112;-66
2022/06/01 04:37:38;;;;;;;18.87;12.83;;;11.80;99.90;;;;;;5034455;28;20059;-66
2022/06/01 04:40:05;;;;;;;18.30;12.23;;;11.80;99.90;;;;;;5034208;28;20029;-66
2022/06/01 04:42:33;;;;;;;18.07;12.80;;;11.80;99.90;;;;;;5034112;28;20029;-66
2022/06/01 04:44:59;;;;;;;18.17;13.47;;;11.70;99.90;;;;;;5034122;28;20060;-66
2022/06/01 04:47:25;;;;;;;19.73;12.90;;;11.80;99.90;;;;;;5033957;28;20033;-66
2022/06/01 04:49:51;;;;;;;20.13;13.67;;;11.80;99.90;;;;;;5034063;28;20101;-66
2022/06/01 04:52:17;;;;;;;21.70;12.57;;;11.80;99.90;;;;;;5033924;28;20421;-66
2022/06/01 04:54:43;;;;;;;18.50;12.27;;;11.80;99.90;;;;;;5034280;28;20076;-66
2022/06/01 04:57:09;;;;;;;17.77;12.00;;;11.80;99.90;;;;;;5033794;28;20029;-66
2022/06/01 04:59:35;;;;;;;18.87;12.33;;;11.80;99.90;;;;;;5055933;22;20343;-82
2022/06/01 05:02:01;;;;;;;15.67;12.43;;;11.80;99.90;;;;;;5033437;28;20033;-82
2022/06/01 05:04:28;;;;;;;17.07;12.93;;;11.80;99.90;;;;;;5033619;28;20104;-82
2022/06/01 05:06:58;;;;;;;17.47;12.70;;;11.90;99.90;;;;;;5033273;28;20490;-82
2022/06/01 05:09:24;;;;;;;18.50;12.13;;;11.90;99.90;;;;;;5033036;28;20029;-83
2022/06/01 05:11:51;;;;;;;16.73;12.67;;;12.00;99.90;;;;;;5033240;28;20029;-83
2022/06/01 05:14:17;;;;;;;18.00;13.30;;;12.00;99.90;;;;;;5033266;28;20029;-83
2022/06/01 05:16:43;;;;;;;15.27;11.80;;;12.10;99.90;;;;;;5033011;28;20018;-82
2022/06/01 05:19:09;;;;;;;20.40;12.25;;;12.20;99.90;;;;;;5031556;28;20508;-83
2022/06/01 05:21:34;;;;;;;17.98;12.00;;;12.30;99.90;;;;;;5033557;28;20097;-83
2022/06/01 05:24:00;;;;;;;20.40;11.98;;;12.40;99.90;;;;;;5033214;28;20378;-83
2022/06/01 05:26:26;;;;;;;16.37;11.70;;;12.50;99.90;;;;;;5031548;28;20462;-83
2022/06/01 05:28:52;;;;;;;16.63;11.52;;;12.50;99.90;;;;;;5032702;28;20060;-83
2022/06/01 05:31:19;;;;;;;16.10;11.40;;;12.60;99.90;;;;;;5032809;28;20426;-83
2022/06/01 05:33:45;;;;;;;18.23;11.98;;;12.60;99.90;;;;;;5032868;28;20046;-83
2022/06/01 05:36:15;;;;;;;16.88;11.80;;;12.60;99.90;;;;;;5031541;28;20029;-83
2022/06/01 05:38:42;;;;;;;16.58;11.70;;;12.60;99.90;;;;;;5032650;28;20063;-83
2022/06/01 05:41:08;;;;;;;22.83;13.52;;;12.60;99.90;;;;;;5032601;28;20030;-83
2022/06/01 05:43:34;;;;;;;16.58;11.30;;;12.60;99.90;;;;;;5032631;28;20095;-83
2022/06/01 05:46:01;;;;;;;18.02;12.40;;;12.70;99.90;;;;;;5032470;28;20033;-83
2022/06/01 05:48:27;;;;;;;15.82;11.00;;;12.70;99.90;;;;;;5032834;28;20064;-83
2022/06/01 05:50:53;;;;;;;16.80;11.27;;;12.70;99.90;;;;;;5014562;28;20079;-83
2022/06/01 05:53:18;;;;;;;15.55;11.07;;;12.70;99.90;;;;;;5014999;28;20025;-83
2022/06/01 05:55:44;;;;;;;19.75;11.90;;;12.80;99.90;;;;;;5030885;28;20033;-83
2022/06/01 05:58:19;;;;;;;16.92;11.50;;;12.80;99.90;;;;;;5032504;28;20025;-84
2022/06/01 06:00:47;;;;;;;15.73;10.05;;;12.80;99.90;;;;;;5031835;28;20482;-83
2022/06/01 06:03:13;;;;;;;18.00;11.27;;;12.90;99.90;;;;;;5031448;28;20510;-84
2022/06/01 06:08:25;;;;;;;11.52;9.43;;;12.90;99.90;;;;;;5032139;28;20030;-84
2022/06/01 06:10:50;;;;;;;16.60;10.43;;;12.90;99.90;;;;;;5031652;28;20037;-83
2022/06/01 06:13:17;;;;;;;16.02;10.40;;;13.00;99.90;;;;;;5032044;28;20034;-83
2022/06/01 06:15:42;;;;;;;14.45;9.18;;;13.00;99.90;;;;;;5031739;28;20048;-84
2022/06/01 06:18:15;;;;;;;17.40;10.25;;;13.10;99.90;;;;;;5030604;28;20030;-83
2022/06/01 06:20:42;;;;;;;15.15;9.35;;;13.10;99.90;;;;;;5031629;28;20065;-83
2022/06/01 06:23:09;;;;;;;16.33;9.13;;;13.10;99.90;;;;;;5031762;28;20039;-83
2022/06/01 06:25:35;;;;;;;15.63;9.20;;;13.10;99.90;;;;;;5031877;28;20025;-83
2022/06/01 06:28:00;;;;;;;17.35;9.23;;;13.20;99.90;;;;;;5031645;28;20392;-83
2022/06/01 06:30:26;;;;;;;16.65;10.07;;;13.20;99.90;;;;;;5031280;28;20026;-83
2022/06/01 06:32:52;;;;;;;15.98;9.23;;;13.20;99.90;;;;;;5031535;28;20117;-83
2022/06/01 06:35:18;;;;;;;13.70;8.77;;;13.20;99.90;;;;;;5031492;28;20029;-83
2022/06/01 06:37:44;;;;;;;17.65;9.30;;;13.20;99.90;;;;;;5029951;28;20408;-83
2022/06/01 06:40:11;;;;;;;14.63;9.07;;;13.30;99.90;;;;;;5031259;28;20036;-82
2022/06/01 06:42:37;;;;;;;13.13;8.30;;;13.30;99.90;;;;;;5030127;28;20473;-83
2022/06/01 06:45:04;;;;;;;14.85;9.13;;;13.30;99.90;;;;;;5031350;28;20033;-83
2022/06/01 06:47:32;;;;;;;14.95;8.52;;;13.30;99.90;;;;;;5029713;28;20485;-83
2022/06/01 06:49:58;;;;;;;15.45;8.98;;;13.30;99.90;;;;;;5030859;28;20112;-83
2022/06/01 06:52:24;;;;;;;15.80;9.05;;;13.40;99.90;;;;;;5031175;28;20044;-83
2022/06/01 06:54:50;;;;;;;14.82;8.63;;;13.50;99.90;;;;;;5031283;28;20029;-83
2022/06/01 06:57:16;;;;;;;14.57;8.35;;;13.50;99.90;;;;;;5029605;28;20033;-83
2022/06/01 06:59:41;;;;;;;11.82;7.65;;;13.50;99.90;;;;;;5029545;28;20059;-83
2022/06/01 07:02:07;;;;;;;13.10;7.50;;;13.50;99.90;;;;;;5030933;28;20168;-83
2022/06/01 07:04:35;;;;;;;12.90;7.50;;;13.50;99.90;;;;;;5029906;28;20022;-83
2022/06/01 07:07:02;;;;;;;12.82;6.88;;;13.60;99.90;;;;;;5030856;28;20021;-83
2022/06/01 07:09:27;;;;;;;17.85;7.32;;;13.60;99.90;;;;;;5029269;28;20029;-83
2022/06/01 07:11:53;;;;;;;13.80;6.38;;;13.60;99.90;;;;;;5029585;28;20040;-83
2022/06/01 07:14:19;;;;;;;10.65;6.80;;;13.60;99.90;;;;;;5031190;28;20033;-83
2022/06/01 07:16:44;;;;;;;10.10;6.65;;;13.60;99.90;;;;;;5029254;28;20030;-83
2022/06/01 07:19:10;;;;;;;12.02;6.18;;;13.70;99.90;;;;;;5029157;28;20029;-84
2022/06/01 07:21:36;;;;;;;11.25;6.35;;;13.70;99.90;;;;;;5013113;28;20021;-83
2022/06/01 07:24:05;;;;;;;16.02;8.32;;;13.80;99.90;;;;;;5029335;28;20082;-83
2022/06/01 07:26:34;;;;;;;15.10;8.70;;;13.80;99.90;;;;;;5030534;28;20033;-84
2022/06/01 07:29:00;;;;;;;14.57;7.97;;;13.80;99.90;;;;;;5012859;28;20133;-83
2022/06/01 07:31:26;;;;;;;16.55;8.50;;;13.90;99.90;;;;;;5029291;28;20048;-83
2022/06/01 07:33:52;;;;;;;13.93;6.97;;;13.90;99.90;;;;;;5030506;28;20481;-83
2022/06/01 07:36:18;;;;;;;17.65;8.98;;;14.00;99.90;;;;;;5029054;28;20034;-83
2022/06/01 07:44:43;;;;;;;8.70;5.22;;;14.10;99.90;;;;;;5029325;28;20120;-83
2022/06/01 07:47:11;;;;;;;7.60;4.50;;;14.20;99.90;;;;;;5029006;28;20057;-83
2022/06/01 07:49:37;;;;;;;8.55;4.15;;;14.20;99.90;;;;;;5028908;28;20108;-83
2022/06/01 07:52:06;;;;;;;6.65;4.50;;;14.20;99.90;;;;;;5029272;28;20099;-83
2022/06/01 07:54:32;;;;;;;7.60;4.60;;;14.20;99.90;;;;;;5030301;28;20057;-83
2022/06/01 07:56:58;;;;;;;10.68;5.00;;;14.20;99.90;;;;;;5030255;28;20147;-83
2022/06/01 07:59:23;;;;;;;6.55;3.78;;;14.20;99.90;;;;;;5030048;28;20397;-84
2022/06/01 08:01:49;;;;;;;6.82;4.18;;;14.30;99.90;;;;;;5029048;28;20033;-83
2022/06/01 08:04:16;;;;;;;7.07;3.83;;;14.20;99.90;;;;;;5029191;28;20026;-83
2022/06/01 08:06:42;;;;;;;8.73;4.63;;;14.30;99.90;;;;;;5028875;28;20084;-83
2022/06/01 08:09:08;;;;;;;5.72;3.90;;;14.30;99.90;;;;;;5028647;28;20029;-83
2022/06/01 08:14:18;;;;;;;9.23;4.43;;;14.30;99.90;;;;;;5028997;28;20485;-83
2022/06/01 08:16:47;;;;;;;8.02;4.25;;;14.30;99.90;;;;;;5030626;28;20045;-83
2022/06/01 08:19:15;;;;;;;6.68;3.90;;;14.30;99.90;;;;;;5030526;28;20856;-83
2022/06/01 08:21:41;;;;;;;7.22;4.05;;;14.40;99.90;;;;;;5030016;28;20022;-83
2022/06/01 08:24:08;;;;;;;6.20;4.05;;;14.40;99.90;;;;;;5029305;28;20042;-83
2022/06/01 08:26:34;;;;;;;7.60;4.53;;;14.40;99.90;;;;;;5030163;28;20026;-83
2022/06/01 08:29:02;;;;;;;7.90;4.95;;;14.50;99.90;;;;;;5033886;28;20583;-83
2022/06/01 08:31:30;;;;;;;7.32;4.13;;;14.40;99.90;;;;;;5033825;28;20041;-83
2022/06/01 08:34:00;;;;;;;6.88;3.20;;;14.50;99.90;;;;;;5032612;28;20393;-83
2022/06/01 08:36:26;;;;;;;6.25;3.38;;;14.50;99.90;;;;;;5032405;28;20599;-83
2022/06/01 08:38:52;;;;;;;9.57;4.35;;;14.60;99.90;;;;;;5032418;28;20060;-83
2022/06/01 08:41:21;;;;;;;5.60;3.08;;;14.70;99.90;;;;;;5032583;28;20036;-83
2022/06/01 08:43:51;;;;;;;5.93;2.90;;;14.80;99.90;;;;;;5034119;28;20428;-83
2022/06/01 08:46:18;;;;;;;5.95;2.92;;;14.90;99.90;;;;;;5033605;28;20081;-83
2022/06/01 08:48:51;;;;;;;4.47;2.70;;;15.00;99.90;;;;;;5015704;28;20477;-83
2022/06/01 08:51:21;;;;;;;6.57;3.28;;;15.10;99.90;;;;;;5033702;28;20029;-83
2022/06/01 08:53:47;;;;;;;5.85;3.08;;;15.20;99.90;;;;;;5033981;28;20127;-83
2022/06/01 08:56:23;;;;;;;4.07;2.20;;;15.20;99.90;;;;;;5033338;28;20509;-83
2022/06/01 08:59:05;;;;;;;4.25;2.30;;;15.30;99.90;;;;;;5032192;28;20037;-83
2022/06/01 09:01:50;;;;;;;5.78;2.38;;;15.30;99.90;;;;;;5033494;28;20285;-83
2022/06/01 09:04:43;;;;;;;5.95;2.67;;;15.30;99.90;;;;;;5033880;28;20041;-83
2022/06/01 09:07:33;;;;;;;6.88;3.13;;;15.30;99.90;;;;;;5034218;28;20029;-83
2022/06/01 09:10:10;;;;;;;6.88;3.15;;;15.30;99.90;;;;;;5034262;28;20025;-83
2022/06/01 09:12:37;;;;;;;5.63;3.03;;;15.40;99.90;;;;;;5017467;28;20030;-84
2022/06/01 09:15:14;;;;;;;5.20;2.50;;;15.40;99.90;;;;;;5033298;28;20036;-83
2022/06/01 09:17:43;;;;;;;7.43;2.88;;;15.40;99.90;;;;;;5031407;28;20449;-83
2022/06/01 09:23:00;;;;;;;5.95;3.03;;;15.50;99.90;;;;;;5032698;28;20284;-83
2022/06/01 09:25:32;;;;;;;4.85;2.42;;;15.50;99.90;;;;;;5031576;28;20034;-83
2022/06/01 09:28:02;;;;;;;5.03;2.60;;;15.40;99.80;;;;;;5032429;28;20478;-83
2022/06/01 09:30:36;;;;;;;5.35;2.50;;;15.50;99.90;;;;;;5032261;28;20033;-83
2022/06/01 09:33:29;;;;;;;5.80;2.30;;;15.50;99.90;;;;;;5032705;28;20144;-83
2022/06/01 09:35:58;;;;;;;5.32;2.20;;;15.60;99.40;;;;;;5031209;28;20468;-83
2022/06/01 09:38:51;;;;;;;5.63;2.97;;;15.60;99.70;;;;;;5031440;28;20033;-83
2022/06/01 09:41:19;;;;;;;4.88;2.30;;;15.60;99.60;;;;;;5032510;28;20034;-83
2022/06/01 09:44:01;;;;;;;5.35;2.10;;;15.60;99.60;;;;;;5032424;28;20378;-83
2022/06/01 09:46:40;;;;;;;4.80;2.08;;;15.70;99.30;;;;;;5032242;28;20033;-83
2022/06/01 09:49:24;;;;;;;6.43;2.40;;;15.70;99.20;;;;;;5030640;28;20029;-83
2022/06/01 09:52:10;;;;;;;5.20;2.33;;;15.80;98.90;;;;;;5031108;28;20409;-83
2022/06/01 09:54:41;;;;;;;4.38;1.77;;;15.90;98.30;;;;;;5032093;28;20044;-83
2022/06/01 09:57:16;;;;;;;4.07;1.70;;;15.90;98.30;;;;;;5032008;28;20095;-83
2022/06/01 10:08:18;;;;;;;3.75;1.88;;;15.90;98.10;;;;;;5030652;28;20087;-83
2022/06/01 10:11:04;;;;;;;6.28;2.65;;;16.00;98.60;;;;;;5030284;28;20027;-83
2022/06/01 10:13:52;;;;;;;4.97;2.28;;;16.00;97.90;;;;;;5030561;28;20076;-83
2022/06/01 10:16:24;;;;;;;4.15;2.28;;;16.00;98.20;;;;;;5030170;28;20037;-83
2022/06/01 10:18:53;;;;;;;6.05;2.72;;;16.00;97.90;;;;;;5030654;28;20037;-83
2022/06/01 10:21:23;;;;;;;6.63;2.80;;;16.00;97.10;;;;;;5030241;28;20029;-82
2022/06/01 10:23:53;;;;;;;7.32;3.47;;;16.10;97.10;;;;;;5030278;28;20049;-82
2022/06/01 10:26:29;;;;;;;7.70;1.83;;;16.20;97.30;;;;;;5031336;28;20077;-82
2022/06/01 10:29:17;;;;;;;4.57;2.10;;;16.20;96.70;;;;;;5031374;28;20033;-82
2022/06/01 10:31:56;;;;;;;6.25;2.67;;;16.20;97.00;;;;;;5031542;28;20030;-82
2022/06/01 10:34:47;;;;;;;4.28;2.08;;;16.20;96.70;;;;;;5030120;28;20508;-82
2022/06/01 10:37:51;;;;;;;5.35;2.50;;;16.20;96.80;;;;;;5031232;28;20292;-82
2022/06/01 10:40:21;;;;;;;3.80;1.80;;;16.20;97.00;;;;;;5002811;28;20072;-82
2022/06/01 10:43:18;;;;;;;3.20;2.08;;;16.20;97.30;;;;;;5031323;28;20029;-82
2022/06/01 10:46:15;;;;;;;5.45;2.38;;;16.30;96.80;;;;;;5031138;28;20426;-82
2022/06/01 10:48:52;;;;;;;6.72;2.35;;;16.30;96.80;;;;;;5009792;28;20043;-82
2022/06/01 10:51:24;;;;;;;7.70;3.10;;;16.30;96.60;;;;;;5031558;28;20029;-82
2022/06/01 10:54:11;;;;;;;4.60;1.98;;;16.30;96.40;;;;;;5031038;28;20067;-82
2022/06/01 10:56:38;;;;;;;6.00;1.70;;;16.20;96.30;;;;;;5030942;28;20029;-82
2022/06/01 10:59:12;;;;;;;4.57;2.03;;;16.20;94.90;;;;;;5031017;28;20030;-82
2022/06/01 11:01:51;;;;;;;5.10;2.38;;;16.20;96.00;;;;;;5045951;22;20049;-80
2022/06/01 11:04:56;;;;;;;6.68;2.22;;;16.20;96.40;;;;;;5030991;28;20026;-80
2022/06/01 11:07:41;;;;;;;5.13;2.25;;;16.10;96.70;;;;;;5027586;28;20099;-80
2022/06/01 11:10:09;;;;;;;4.65;2.10;;;16.10;96.70;;;;;;5030622;28;20029;-80
2022/06/01 11:13:03;;;;;;;4.93;2.38;;;16.20;96.30;;;;;;5030818;28;20030;-80
2022/06/01 11:15:32;;;;;;;4.72;1.80;;;16.20;95.80;;;;;;5030848;28;20030;-80
2022/06/01 11:18:02;;;;;;;6.57;2.88;;;16.10;96.00;;;;;;5030773;28;20076;-80
2022/06/01 11:20:28;;;;;;;4.43;1.58;;;16.10;96.10;;;;;;5030422;28;20033;-80
2022/06/01 11:23:18;;;;;;;3.28;1.60;;;16.00;96.30;;;;;;5031128;28;20497;-80
2022/06/01 11:26:04;;;;;;;4.47;1.88;;;16.00;96.00;;;;;;5030388;28;20056;-80
2022/06/01 11:28:45;;;;;;;10.20;4.28;;;16.00;96.10;;;;;;5030571;28;20033;-80
2022/06/01 11:31:25;;;;;;;4.15;2.33;;;16.00;95.20;;;;;;5030602;28;20168;-80
2022/06/01 11:34:03;;;;;;;4.93;1.90;;;16.00;94.80;;;;;;5030490;28;20030;-80
2022/06/01 11:36:44;;;;;;;6.95;2.40;;;16.00;95.60;;;;;;5030390;28;20514;-80
2022/06/01 11:39:42;;;;;;;6.10;2.00;;;16.10;95.60;;;;;;5030403;28;20036;-80
2022/06/01 11:42:18;;;;;;;6.35;2.47;;;16.10;95.50;;;;;;5030390;28;20037;-80
2022/06/01 11:45:08;;;;;;;6.72;2.08;;;16.20;94.90;;;;;;5030600;28;20064;-79
2022/06/01 11:48:10;;;;;;;6.07;2.13;;;16.30;95.40;;;;;;5030159;28;20741;-80
2022/06/01 11:50:54;;;;;;;8.00;2.20;;;16.30;94.40;;;;;;5029994;28;20029;-80
2022/06/01 11:53:33;;;;;;;4.70;1.70;;;16.40;94.50;;;;;;5030551;28;20029;-80
2022/06/01 11:56:30;;;;;;;6.10;2.10;;;16.50;93.40;;;;;;5030337;28;20037;-80
2022/06/01 11:59:15;;;;;;;4.70;1.73;;;16.50;93.00;;;;;;4999450;28;20496;-80
2022/06/01 12:01:41;;;;;;;6.47;1.90;;;16.40;93.40;;;;;;5030340;28;20448;-80
2022/06/01 12:04:25;;;;;;;6.57;2.90;;;16.40;93.90;;;;;;5034162;28;20033;-80
2022/06/01 12:07:05;;;;;;;5.22;2.25;;;16.40;94.00;;;;;;5033865;28;20104;-80
2022/06/01 12:09:49;;;;;;;4.38;2.05;;;16.30;94.20;;;;;;5033831;28;20065;-80
2022/06/01 12:12:43;;;;;;;3.40;1.50;;;16.30;94.50;;;;;;5034055;28;20029;-80
2022/06/01 12:15:20;;;;;;;5.78;2.00;;;16.30;94.90;;;;;;5033940;28;20490;-80
2022/06/01 12:18:11;;;;;;;4.43;1.73;;;16.30;95.30;;;;;;5033596;28;20084;-80
2022/06/01 12:20:37;;;;;;;7.40;1.92;;;16.40;95.10;;;;;;5033789;28;20426;-80
2022/06/01 12:28:54;;;;;;;4.35;1.80;;;15.90;96.40;;;;;;5033590;28;20041;-80
2022/06/01 12:31:30;;;;;;;3.92;1.52;;;15.70;96.30;;;;;;5033763;28;20391;-80
2022/06/01 12:34:19;;;;;;;5.25;2.03;;;15.60;96.70;;;;;;5033700;28;20029;-80
2022/06/01 12:37:13;;;;;;;4.60;1.70;;;15.40;98.00;;;;;;5033473;28;20096;-80
2022/06/01 12:39:39;;;;;;;5.78;2.10;;;15.30;99.10;;;;;;5033073;28;20099;-80
2022/06/01 12:42:09;;;;;;;3.40;2.10;;;15.30;99.90;;;;;;5033851;28;20025;-80
2022/06/01 12:44:38;;;;;;;3.25;1.95;;;15.20;99.90;;;;;;5032156;28;20029;-80
2022/06/01 12:47:04;;;;;;;4.43;2.30;;;15.20;99.90;;;;;;5033275;28;20040;-80
2022/06/01 12:49:40;;;;;;;2.50;1.85;;;15.20;99.90;;;;;;5033442;28;20037;-80
2022/06/01 12:52:16;;;;;;;4.97;1.70;;;15.10;99.90;;;;;;5033372;28;20040;-80
2022/06/01 12:54:52;;;;;;;2.83;1.70;;;15.10;99.90;;;;;;5033320;28;20041;-80
2022/06/01 12:57:30;;;;;;;3.38;1.70;;;15.10;99.90;;;;;;5033012;28;20025;-80
2022/06/01 13:00:04;;;;;;;3.03;1.80;;;15.00;99.90;;;;;;5033003;28;20082;-80
2022/06/01 13:02:34;;;;;;;2.75;2.00;;;14.90;99.90;;;;;;5033008;28;20386;-80
2022/06/01 13:05:03;;;;;;;3.05;1.80;;;15.10;99.90;;;;;;5033161;28;20032;-80
2022/06/01 13:07:36;;;;;;;4.57;2.00;;;15.20;99.90;;;;;;5032742;28;20040;-80
2022/06/01 13:10:22;;;;;;;3.78;1.80;;;15.30;99.90;;;;;;5031605;28;20054;-80
2022/06/01 13:12:48;;;;;;;3.47;1.92;;;15.40;99.90;;;;;;5033001;28;20382;-80
2022/06/01 13:15:23;;;;;;;1.92;1.63;;;15.40;99.20;;;;;;5033348;28;20033;-80
2022/06/01 13:17:54;;;;;;;3.47;2.17;;;15.40;99.40;;;;;;5032789;28;20030;-80
2022/06/01 13:20:42;;;;;;;2.75;2.10;;;15.40;99.10;;;;;;5032767;28;20389;-80
2022/06/01 13:23:27;;;;;;;5.40;3.05;;;15.30;98.90;;;;;;5032866;28;20040;-80
2022/06/01 13:25:58;;;;;;;3.53;2.20;;;15.30;98.80;;;;;;5032551;28;20057;-80
2022/06/01 13:28:25;;;;;;;3.00;1.95;;;15.30;99.30;;;;;;5032751;28;20029;-80